Time;durP1;ratioP1;P1;durP2;ratioP2;P2;SDS_P1;SDS_P2;PMS_P1;PMS_P2;Temp;Humidity;BMP_temperature;BMP_pressure;BME280_temperature;BME280_humidity;BME280_pressure;Samples;Min_cycle;Max_cycle;Signal;HPM_P1;HPM_P2
2021/10/26 00:01:42;;;;;;;17.80;10.50;;;;;;;9.50;100.00;100845.50;7398803;19;20398;-48
2021/10/26 00:04:12;;;;;;;17.07;11.23;;;;;;;9.37;100.00;100846.59;7390545;19;20704;-47
2021/10/26 00:06:42;;;;;;;22.10;13.67;;;;;;;9.29;100.00;100843.66;7398279;19;20463;-47
2021/10/26 00:09:12;;;;;;;26.80;14.30;;;;;;;9.22;100.00;100836.44;7391240;19;20482;-44
2021/10/26 00:11:42;;;;;;;26.97;16.67;;;;;;;9.19;100.00;100833.72;7398692;19;20452;-45
2021/10/26 00:14:12;;;;;;;30.90;17.57;;;;;;;9.11;100.00;100829.88;7390674;19;20411;-45
2021/10/26 00:16:44;;;;;;;28.67;17.50;;;;;;;9.04;100.00;100819.28;7396649;19;20387;-45
2021/10/26 00:19:13;;;;;;;30.10;18.40;;;;;;;9.03;100.00;100814.94;7390009;19;20432;-44
2021/10/26 00:21:43;;;;;;;30.53;18.30;;;;;;;8.95;100.00;100803.41;7398179;19;20384;-49
2021/10/26 00:24:13;;;;;;;29.63;19.93;;;;;;;8.94;100.00;100799.06;7389665;19;20523;-48
2021/10/26 00:26:42;;;;;;;32.70;19.63;;;;;;;8.94;100.00;100783.63;7397846;19;20464;-47
2021/10/26 00:29:12;;;;;;;34.60;19.30;;;;;;;8.90;100.00;100779.13;7394322;19;20446;-50
2021/10/26 00:31:44;;;;;;;33.70;20.60;;;;;;;8.86;100.00;100772.06;7402982;19;20398;-47
2021/10/26 00:34:14;;;;;;;32.00;19.00;;;;;;;8.82;100.00;100760.75;7390176;19;20414;-48
2021/10/26 00:36:43;;;;;;;36.03;20.20;;;;;;;8.77;100.00;100747.66;7397633;19;20403;-47
2021/10/26 00:39:13;;;;;;;48.20;20.60;;;;;;;8.77;100.00;100742.50;7390358;19;20441;-47
2021/10/26 00:41:43;;;;;;;44.93;21.77;;;;;;;8.75;100.00;100726.13;7397328;19;20376;-48
2021/10/26 00:44:12;;;;;;;36.80;21.77;;;;;;;8.76;100.00;100711.56;7392785;19;20425;-47
2021/10/26 00:46:44;;;;;;;40.90;24.37;;;;;;;8.80;100.00;100702.28;7399226;19;20402;-50
2021/10/26 00:49:14;;;;;;;35.10;22.33;;;;;;;8.82;100.00;100685.25;7397585;19;20877;-47
2021/10/26 00:51:45;;;;;;;37.80;23.07;;;;;;;8.80;100.00;100676.56;7405526;19;20455;-48
2021/10/26 00:54:15;;;;;;;40.63;23.80;;;;;;;8.80;100.00;100674.88;7396194;19;20417;-49
2021/10/26 00:56:46;;;;;;;39.77;23.57;;;;;;;8.78;100.00;100669.66;7403782;19;20455;-48
2021/10/26 00:59:16;;;;;;;46.40;25.00;;;;;;;8.81;100.00;100662.91;7401064;19;20411;-51
2021/10/26 01:01:48;;;;;;;38.77;23.73;;;;;;;8.81;100.00;100652.63;7405069;19;20391;-52
2021/10/26 01:04:18;;;;;;;40.30;22.83;;;;;;;8.80;100.00;100649.16;7395746;19;20407;-51
2021/10/26 01:06:48;;;;;;;40.53;24.60;;;;;;;8.80;100.00;100645.69;7404107;19;20455;-51
2021/10/26 01:09:20;;;;;;;45.07;25.43;;;;;;;8.81;100.00;100650.06;7396585;19;20697;-51
2021/10/26 01:11:49;;;;;;;42.20;25.00;;;;;;;8.83;100.00;100643.28;7404159;19;20387;-44
2021/10/26 01:14:19;;;;;;;45.33;24.50;;;;;;;8.84;100.00;100634.75;7397586;19;20475;-44
2021/10/26 01:16:52;;;;;;;43.63;26.10;;;;;;;8.84;100.00;100640.78;7403747;19;20451;-45
2021/10/26 01:19:21;;;;;;;45.10;26.40;;;;;;;8.84;100.00;100629.59;7397461;19;20433;-45
2021/10/26 01:21:53;;;;;;;46.10;28.20;;;;;;;8.83;100.00;100623.59;7404025;19;20459;-44
2021/10/26 01:24:23;;;;;;;45.47;26.90;;;;;;;8.86;100.00;100625.41;7395925;19;20691;-45
2021/10/26 01:26:52;;;;;;;48.37;27.80;;;;;;;8.85;100.00;100621.06;7404343;19;20909;-48
2021/10/26 01:29:22;;;;;;;49.37;29.43;;;;;;;8.85;100.00;100619.41;7397503;19;20426;-44
2021/10/26 01:31:51;;;;;;;53.10;28.60;;;;;;;8.88;100.00;100618.66;7404178;19;20443;-46
2021/10/26 01:34:21;;;;;;;46.67;28.40;;;;;;;8.89;100.00;100610.13;7395259;19;20498;-48
2021/10/26 01:36:53;;;;;;;49.63;29.23;;;;;;;8.90;100.00;100609.31;7406748;19;20414;-44
2021/10/26 01:39:23;;;;;;;58.50;29.37;;;;;;;8.90;100.00;100605.06;7396586;19;20889;-43
2021/10/26 01:41:52;;;;;;;55.47;29.97;;;;;;;8.93;100.00;100617.19;7403857;19;20842;-44
2021/10/26 01:44:22;;;;;;;51.27;29.27;;;;;;;8.94;100.00;100608.66;7396903;19;20439;-45
2021/10/26 01:46:52;;;;;;;47.83;30.17;;;;;;;8.97;100.00;100608.78;7402982;19;20390;-44
2021/10/26 01:49:22;;;;;;;51.63;28.93;;;;;;;9.01;100.00;100612.38;7395627;19;20899;-47
2021/10/26 01:51:54;;;;;;;55.70;31.20;;;;;;;8.99;100.00;100617.47;7403927;19;20898;-48
2021/10/26 01:54:24;;;;;;;51.03;28.53;;;;;;;9.01;100.00;100615.84;7394818;19;20431;-45
2021/10/26 01:56:53;;;;;;;54.90;30.20;;;;;;;9.02;100.00;100614.13;7402847;19;20388;-45
2021/10/26 01:59:24;;;;;;;54.87;30.43;;;;;;;9.03;100.00;100609.06;7394308;19;20452;-44
2021/10/26 02:01:53;;;;;;;53.13;28.83;;;;;;;9.04;100.00;100615.97;7403403;19;20475;-44
2021/10/26 02:04:23;;;;;;;52.37;28.53;;;;;;;9.04;100.00;100615.09;7393753;19;20426;-44
2021/10/26 02:06:55;;;;;;;51.53;29.20;;;;;;;9.04;100.00;100610.81;7405691;19;20467;-47
2021/10/26 02:09:25;;;;;;;53.20;30.13;;;;;;;9.02;100.00;100607.31;7394292;19;20464;-45
2021/10/26 02:11:54;;;;;;;49.97;28.83;;;;;;;9.03;100.00;100606.47;7403240;19;20667;-46
2021/10/26 02:14:24;;;;;;;47.27;25.80;;;;;;;9.00;100.00;100602.88;7395102;19;20425;-44
2021/10/26 02:16:53;;;;;;;48.60;29.50;;;;;;;8.99;100.00;100604.59;7402382;19;20477;-44
2021/10/26 02:19:23;;;;;;;46.97;28.17;;;;;;;9.01;100.00;100602.06;7395314;19;20427;-46
2021/10/26 02:21:55;;;;;;;48.63;29.37;;;;;;;9.03;100.00;100608.19;7402901;19;20392;-45
2021/10/26 02:24:25;;;;;;;49.93;28.40;;;;;;;9.00;100.00;100606.34;7394518;19;20491;-45
2021/10/26 02:26:55;;;;;;;46.20;28.23;;;;;;;9.00;100.00;100611.50;7402135;19;20395;-43
2021/10/26 02:29:25;;;;;;;55.07;29.10;;;;;;;9.04;100.00;100615.09;7397663;19;20437;-47
2021/10/26 02:31:55;;;;;;;46.80;28.10;;;;;;;9.03;100.00;100603.91;7403586;19;20398;-45
2021/10/26 02:34:25;;;;;;;48.00;27.47;;;;;;;9.05;100.00;100609.13;7394203;19;20447;-46
2021/10/26 02:36:57;;;;;;;48.43;28.60;;;;;;;9.00;100.00;100605.47;7401877;19;20485;-48
2021/10/26 02:39:27;;;;;;;50.40;28.40;;;;;;;8.98;100.00;100605.38;7393925;19;20431;-45
2021/10/26 02:41:56;;;;;;;49.70;27.10;;;;;;;8.99;100.00;100602.03;7402221;19;20451;-44
2021/10/26 02:44:26;;;;;;;50.57;27.87;;;;;;;8.98;100.00;100595.09;7394202;19;20425;-44
2021/10/26 02:46:55;;;;;;;51.80;27.53;;;;;;;8.99;100.00;100602.03;7401349;19;20408;-45
2021/10/26 02:49:25;;;;;;;51.37;28.23;;;;;;;8.93;100.00;100596.59;7393587;19;20441;-44
2021/10/26 02:51:57;;;;;;;54.10;29.80;;;;;;;8.90;100.00;100592.19;7401876;19;20850;-45
2021/10/26 02:54:26;;;;;;;53.30;27.40;;;;;;;8.87;100.00;100591.16;7392514;19;20479;-46
2021/10/26 02:56:56;;;;;;;55.17;29.87;;;;;;;8.87;100.00;100593.75;7400975;19;20407;-44
2021/10/26 02:59:25;;;;;;;51.73;28.97;;;;;;;8.86;100.00;100598.00;7394419;19;20494;-44
2021/10/26 03:01:55;;;;;;;55.93;28.87;;;;;;;8.83;100.00;100595.28;7401344;19;20386;-46
2021/10/26 03:04:24;;;;;;;50.53;28.00;;;;;;;8.81;100.00;100596.03;7394142;19;20435;-45
2021/10/26 03:06:56;;;;;;;48.57;28.30;;;;;;;8.79;100.00;100598.53;7400699;19;20870;-45
2021/10/26 03:09:26;;;;;;;50.37;27.87;;;;;;;8.78;100.00;100600.19;7393009;19;20439;-44
2021/10/26 03:11:55;;;;;;;50.47;28.27;;;;;;;8.76;100.00;100596.69;7401189;19;20451;-46
2021/10/26 03:14:25;;;;;;;54.87;29.20;;;;;;;8.73;100.00;100599.09;7396514;19;20427;-45
2021/10/26 03:16:54;;;;;;;46.47;27.07;;;;;;;8.74;100.00;100590.59;7400410;19;20402;-45
2021/10/26 03:19:23;;;;;;;56.50;29.03;;;;;;;8.73;100.00;100596.53;7393621;19;20432;-44
2021/10/26 03:21:53;;;;;;;49.90;28.90;;;;;;;8.73;100.00;100593.09;7400655;19;20468;-44
2021/10/26 03:24:26;;;;;;;53.93;27.10;;;;;;;8.74;100.00;100590.59;7391711;19;20408;-44
2021/10/26 03:26:56;;;;;;;61.13;29.37;;;;;;;8.75;100.00;100597.50;7400064;19;20398;-43
2021/10/26 03:29:26;;;;;;;56.47;31.60;;;;;;;8.75;100.00;100587.22;7373411;19;20762;-44
2021/10/26 03:31:56;;;;;;;53.57;30.03;;;;;;;8.75;100.00;100597.50;7400887;19;20739;-44
2021/10/26 03:34:25;;;;;;;63.10;30.90;;;;;;;8.76;100.00;100593.22;7392023;19;20466;-44
2021/10/26 03:36:55;;;;;;;57.43;29.93;;;;;;;8.77;100.00;100595.88;7401163;19;20402;-50
2021/10/26 03:39:27;;;;;;;49.90;28.53;;;;;;;8.74;100.00;100590.59;7371210;19;20458;-46
2021/10/26 03:41:56;;;;;;;61.37;31.60;;;;;;;8.71;100.00;100597.31;7401491;19;20400;-47
2021/10/26 03:44:26;;;;;;;60.93;33.07;;;;;;;8.67;100.00;100585.97;7396013;19;20824;-44
2021/10/26 03:46:55;;;;;;;59.70;29.07;;;;;;;8.64;100.00;100588.41;7399267;19;20557;-47
2021/10/26 03:49:25;;;;;;;54.37;29.60;;;;;;;8.62;100.00;100590.03;7392721;19;20482;-48
2021/10/26 03:51:54;;;;;;;61.73;31.37;;;;;;;8.57;100.00;100591.50;7399950;19;20455;-45
2021/10/26 03:54:26;;;;;;;62.50;30.30;;;;;;;8.57;100.00;100591.50;7391132;19;20725;-47
2021/10/26 03:56:56;;;;;;;70.83;31.83;;;;;;;8.55;100.00;100603.41;7399941;19;20398;-47
2021/10/26 03:59:29;;;;;;;68.07;31.30;;;;;;;8.52;100.00;100599.00;7395924;19;20431;-50
2021/10/26 04:02:04;;;;;;;59.57;29.00;;;;;;;8.45;100.00;100602.91;7399579;19;20855;-44
2021/10/26 04:04:33;;;;;;;57.83;31.00;;;;;;;8.44;100.00;100608.88;7391178;19;20455;-45
2021/10/26 04:07:06;;;;;;;59.70;30.30;;;;;;;8.45;100.00;100612.31;7398806;19;20455;-47
2021/10/26 04:09:47;;;;;;;61.07;31.50;;;;;;;8.48;100.00;100615.03;7391755;19;20482;-47
2021/10/26 04:12:25;;;;;;;62.80;32.17;;;;;;;8.47;100.00;100619.28;7402806;19;20451;-51
2021/10/26 04:14:57;;;;;;;67.57;31.07;;;;;;;8.48;100.00;100627.91;7394426;19;20423;-50
2021/10/26 04:17:29;;;;;;;67.57;31.70;;;;;;;8.48;100.00;100626.22;7398634;19;20451;-50
2021/10/26 04:19:59;;;;;;;61.20;30.37;;;;;;;8.51;100.00;100617.75;7391875;19;20695;-50
2021/10/26 04:22:29;;;;;;;61.13;31.20;;;;;;;8.50;100.00;100626.28;7404060;19;20855;-47
2021/10/26 04:25:01;;;;;;;65.97;32.93;;;;;;;8.53;100.00;100621.34;7397621;19;20490;-50
2021/10/26 04:27:30;;;;;;;63.40;33.23;;;;;;;8.54;100.00;100629.91;7406066;19;20464;-45
2021/10/26 04:30:00;;;;;;;58.63;31.17;;;;;;;8.54;100.00;100624.75;7402398;19;20425;-48
2021/10/26 04:32:31;;;;;;;62.97;32.17;;;;;;;8.54;100.00;100632.47;7406184;19;20388;-49
2021/10/26 04:35:00;;;;;;;61.10;32.03;;;;;;;8.54;100.00;100633.38;7399313;19;20450;-51
2021/10/26 04:37:30;;;;;;;60.97;32.80;;;;;;;8.56;100.00;100641.16;7405630;19;20400;-47
2021/10/26 04:40:03;;;;;;;61.20;31.13;;;;;;;8.56;100.00;100630.88;7398838;19;20751;-52
2021/10/26 04:42:32;;;;;;;59.17;31.93;;;;;;;8.57;100.00;100640.34;7405911;19;20383;-46
2021/10/26 04:45:02;;;;;;;62.40;30.47;;;;;;;8.59;100.00;100638.72;7399991;19;20407;-50
2021/10/26 04:47:31;;;;;;;57.97;30.83;;;;;;;8.60;100.00;100643.06;7405292;19;20394;-49
2021/10/26 04:50:01;;;;;;;59.60;28.97;;;;;;;8.60;100.00;100651.69;7398563;19;20426;-49
2021/10/26 04:52:30;;;;;;;65.57;32.17;;;;;;;8.62;100.00;100646.59;7405652;19;20384;-48
2021/10/26 04:55:02;;;;;;;63.10;32.47;;;;;;;8.67;100.00;100649.41;7400180;19;20427;-45
2021/10/26 04:57:32;;;;;;;54.70;29.70;;;;;;;8.66;100.00;100653.66;7405088;19;20712;-45
2021/10/26 05:00:02;;;;;;;57.60;29.40;;;;;;;8.70;100.00;100653.00;7401196;19;20430;-46
2021/10/26 05:02:31;;;;;;;56.00;31.23;;;;;;;8.74;100.00;100647.19;7405039;19;20941;-45
2021/10/26 05:05:01;;;;;;;58.43;30.47;;;;;;;8.77;100.00;100652.47;7399828;19;20515;-44
2021/10/26 05:07:31;;;;;;;59.57;31.40;;;;;;;8.78;100.00;100654.22;7404692;19;20397;-44
2021/10/26 05:10:03;;;;;;;62.90;32.00;;;;;;;8.79;100.00;100655.13;7397378;19;20771;-44
2021/10/26 05:12:32;;;;;;;59.80;30.27;;;;;;;8.81;100.00;100650.94;7404854;19;20451;-44
2021/10/26 05:15:02;;;;;;;57.73;32.63;;;;;;;8.84;100.00;100652.75;7399233;19;20474;-43
2021/10/26 05:17:32;;;;;;;58.90;31.73;;;;;;;8.83;100.00;100651.91;7404279;19;20853;-47
2021/10/26 05:20:04;;;;;;;62.37;31.37;;;;;;;8.86;100.00;100658.84;7396883;19;20490;-44
2021/10/26 05:22:33;;;;;;;64.90;31.07;;;;;;;8.87;100.00;100655.50;7404561;19;20439;-44
2021/10/26 05:25:06;;;;;;;56.30;30.07;;;;;;;8.86;100.00;100657.16;7395279;19;20449;-44
2021/10/26 05:27:38;;;;;;;36.03;17.67;;;;;;;8.86;100.00;100657.16;7403968;19;20392;-44
2021/10/26 05:30:09;;;;;;;57.77;28.27;;;;;;;8.86;100.00;100645.97;7378283;19;20397;-46
2021/10/26 05:32:40;;;;;;;67.43;30.27;;;;;;;8.85;100.00;100652.84;7404045;19;20408;-45
2021/10/26 05:35:11;;;;;;;67.40;32.70;;;;;;;8.82;100.00;100651.81;7394535;19;20427;-45
2021/10/26 05:37:40;;;;;;;63.83;30.97;;;;;;;8.79;100.00;100649.97;7406760;19;20925;-45
2021/10/26 05:40:15;;;;;;;62.43;31.83;;;;;;;8.82;100.00;100656.97;7396348;19;20432;-43
2021/10/26 05:42:45;;;;;;;52.70;30.17;;;;;;;8.82;100.00;100659.53;7403864;19;20683;-44
2021/10/26 05:45:14;;;;;;;59.67;31.17;;;;;;;8.84;100.00;100655.34;7398808;19;20423;-43
2021/10/26 05:47:44;;;;;;;62.60;32.87;;;;;;;8.87;100.00;100648.63;7403230;19;20447;-46
2021/10/26 05:50:14;;;;;;;60.63;31.77;;;;;;;8.87;100.00;100645.19;7396552;19;20479;-44
2021/10/26 05:52:43;;;;;;;70.63;32.40;;;;;;;8.84;100.00;100647.63;7401077;19;20455;-45
2021/10/26 05:55:16;;;;;;;58.10;29.87;;;;;;;8.87;100.00;100660.63;7394444;19;20722;-45
2021/10/26 05:57:45;;;;;;;60.67;32.07;;;;;;;8.88;100.00;100658.13;7402902;19;20387;-44
2021/10/26 06:00:16;;;;;;;63.30;30.70;;;;;;;8.90;100.00;100658.19;7400031;19;20482;-48
2021/10/26 06:02:46;;;;;;;65.00;33.20;;;;;;;8.88;100.00;100665.84;7402955;19;20463;-46
2021/10/26 06:05:15;;;;;;;65.10;34.53;;;;;;;8.90;100.00;100655.63;7394246;19;20495;-46
2021/10/26 06:07:45;;;;;;;61.00;32.13;;;;;;;8.90;100.00;100660.78;7402672;19;20396;-44
2021/10/26 06:10:17;;;;;;;60.97;33.57;;;;;;;8.89;100.00;100656.44;7396206;19;20415;-44
2021/10/26 06:12:51;;;;;;;69.03;31.57;;;;;;;8.88;100.00;100665.84;7400659;19;20460;-44
2021/10/26 06:15:21;;;;;;;69.80;30.80;;;;;;;8.88;100.00;100673.56;7397896;19;20482;-44
2021/10/26 06:17:50;;;;;;;69.97;34.63;;;;;;;8.96;100.00;100673.94;7403001;19;20388;-45
2021/10/26 06:20:20;;;;;;;71.73;34.13;;;;;;;9.38;100.00;100662.09;7393351;19;20429;-47
2021/10/26 06:22:49;;;;;;;66.17;33.63;;;;;;;9.10;100.00;100671.09;7403020;19;20659;-44
2021/10/26 06:25:22;;;;;;;64.00;34.17;;;;;;;9.32;100.00;100670.41;7396476;19;20527;-44
2021/10/26 06:27:51;;;;;;;66.20;33.23;;;;;;;9.64;100.00;100673.53;7406377;19;20430;-46
2021/10/26 06:41:51;;;;;;;51.53;29.67;;;;;;;9.13;100.00;100643.81;7281772;19;2923429;-46
2021/10/26 06:44:20;;;;;;;59.73;30.80;;;;;;;9.27;100.00;100646.13;7430477;19;20263;-45
2021/10/26 06:46:50;;;;;;;56.97;31.73;;;;;;;9.19;100.00;100656.09;7434913;19;20843;-47
2021/10/26 06:49:19;;;;;;;61.20;31.47;;;;;;;9.17;100.00;100660.28;7430172;19;20454;-47
2021/10/26 06:51:49;;;;;;;67.00;31.67;;;;;;;9.15;100.00;100661.91;7431460;19;20451;-46
2021/10/26 06:54:18;;;;;;;43.70;22.03;;;;;;;9.14;100.00;100673.03;7430014;19;20431;-46
2021/10/26 06:56:50;;;;;;;61.10;32.57;;;;;;;9.18;100.00;100675.81;7434941;19;20861;-46
2021/10/26 06:59:20;;;;;;;69.70;33.80;;;;;;;9.18;100.00;100669.78;7429806;19;20428;-47
2021/10/26 07:01:49;;;;;;;59.43;30.10;;;;;;;9.20;100.00;100675.88;7430279;19;20749;-45
2021/10/26 07:04:19;;;;;;;65.27;33.20;;;;;;;9.24;100.00;100685.53;7430489;19;20413;-45
2021/10/26 07:06:49;;;;;;;68.93;31.70;;;;;;;9.22;100.00;100684.53;7434562;19;20847;-45
2021/10/26 07:09:18;;;;;;;68.40;31.90;;;;;;;9.24;100.00;100690.66;7426245;19;20376;-46
2021/10/26 07:11:50;;;;;;;58.60;28.00;;;;;;;9.26;100.00;100696.75;7431007;19;20411;-45
2021/10/26 07:14:20;;;;;;;66.77;32.00;;;;;;;9.26;100.00;100689.03;7425800;19;20418;-46
2021/10/26 07:16:49;;;;;;;66.40;32.50;;;;;;;9.30;100.00;100695.22;7433927;19;20385;-46
2021/10/26 07:19:19;;;;;;;65.23;32.80;;;;;;;9.31;100.00;100694.38;7425889;19;20445;-45
2021/10/26 07:21:48;;;;;;;59.70;28.27;;;;;;;9.31;100.00;100700.44;7430915;19;20749;-46
2021/10/26 07:24:18;;;;;;;58.60;30.43;;;;;;;9.31;100.00;100697.84;7430406;19;20415;-49
2021/10/26 07:26:50;;;;;;;51.10;27.77;;;;;;;9.32;100.00;100703.88;7434872;19;20391;-45
2021/10/26 07:29:24;;;;;;;72.17;34.50;;;;;;;9.37;100.00;100697.25;7428504;19;20428;-45
2021/10/26 07:31:55;;;;;;;62.50;30.33;;;;;;;9.37;100.00;100706.66;7429807;19;20411;-47
2021/10/26 07:34:25;;;;;;;55.30;29.37;;;;;;;9.38;100.00;100711.03;7424810;19;20417;-45
2021/10/26 07:36:54;;;;;;;43.67;21.53;;;;;;;9.38;100.00;100709.31;7433459;19;20450;-48
2021/10/26 07:39:43;;;;;;;60.47;30.90;;;;;;;9.41;100.00;100708.56;7427909;19;20672;-45
2021/10/26 07:42:16;;;;;;;51.40;28.10;;;;;;;9.40;100.00;100705.13;7411702;19;20388;-45
2021/10/26 07:44:47;;;;;;;54.50;28.77;;;;;;;9.42;100.00;100711.22;7400537;19;20486;-47
2021/10/26 07:47:19;;;;;;;52.53;29.07;;;;;;;9.47;100.00;100714.00;7404494;19;20402;-45
2021/10/26 07:49:50;;;;;;;64.53;31.60;;;;;;;9.50;100.00;100719.31;7398828;19;20415;-45
2021/10/26 07:52:20;;;;;;;53.30;29.30;;;;;;;9.50;100.00;100723.56;7403886;19;20459;-47
2021/10/26 07:54:55;;;;;;;59.47;29.40;;;;;;;9.51;100.00;100721.06;7395658;19;20423;-44
2021/10/26 07:57:29;;;;;;;49.87;27.10;;;;;;;9.53;100.00;100726.28;7404144;19;20719;-46
2021/10/26 08:00:00;;;;;;;53.80;28.37;;;;;;;9.53;100.00;100721.13;7398772;19;20516;-49
2021/10/26 08:02:29;;;;;;;59.00;25.90;;;;;;;9.53;100.00;100724.59;7404035;19;20747;-46
2021/10/26 08:04:59;;;;;;;60.73;28.93;;;;;;;9.54;100.00;100726.34;7395473;19;20430;-46
2021/10/26 08:07:28;;;;;;;59.00;26.23;;;;;;;9.54;100.00;100725.47;7403863;19;20843;-45
2021/10/26 08:09:59;;;;;;;54.70;27.43;;;;;;;9.61;100.00;100718.88;7398491;19;20474;-45
2021/10/26 08:12:31;;;;;;;85.10;39.83;;;;;;;9.63;100.00;100735.31;7403676;19;20420;-46
2021/10/26 08:15:01;;;;;;;57.93;29.93;;;;;;;9.65;100.00;100731.09;7395686;19;20427;-51
2021/10/26 08:17:31;;;;;;;63.03;33.47;;;;;;;9.72;100.00;100730.56;7403595;19;20400;-49
2021/10/26 08:20:01;;;;;;;50.70;26.37;;;;;;;9.69;100.00;100741.59;7393710;19;20479;-46
2021/10/26 08:22:33;;;;;;;58.43;28.97;;;;;;;9.73;100.00;100734.91;7403189;19;20392;-46
2021/10/26 08:25:09;;;;;;;51.13;28.20;;;;;;;9.76;100.00;100737.63;7395508;19;20429;-46
2021/10/26 08:27:41;;;;;;;54.73;27.27;;;;;;;9.78;100.00;100732.53;7403089;19;20450;-45
2021/10/26 08:30:15;;;;;;;49.07;27.17;;;;;;;9.84;100.00;100731.13;7398876;19;20446;-47
2021/10/26 08:32:55;;;;;;;55.77;26.93;;;;;;;9.92;100.00;100735.72;7402397;19;20386;-49
2021/10/26 08:35:29;;;;;;;47.00;23.47;;;;;;;9.95;100.00;100743.59;7396606;19;20443;-50
2021/10/26 08:38:02;;;;;;;41.83;23.17;;;;;;;9.98;100.00;100747.19;7403239;19;20656;-48
2021/10/26 08:40:34;;;;;;;47.30;24.20;;;;;;;10.03;100.00;100754.22;7396343;19;20737;-50
2021/10/26 08:43:07;;;;;;;37.90;18.23;;;;;;;10.00;100.00;100758.44;7404415;19;20467;-46
2021/10/26 08:45:38;;;;;;;46.77;24.37;;;;;;;10.03;100.00;100760.28;7394846;19;20498;-46
2021/10/26 08:48:11;;;;;;;45.40;23.23;;;;;;;10.07;100.00;100759.59;7402396;19;20388;-48
2021/10/26 08:50:40;;;;;;;42.27;22.53;;;;;;;10.10;100.00;100769.16;7392660;19;20443;-49
2021/10/26 08:53:10;;;;;;;34.70;15.53;;;;;;;10.06;100.00;100777.56;7400034;19;20852;-46
2021/10/26 08:55:40;;;;;;;33.17;19.13;;;;;;;10.06;100.00;100783.59;7394275;19;20426;-51
2021/10/26 08:58:12;;;;;;;37.03;19.03;;;;;;;10.11;100.00;100797.56;7401799;19;20390;-53
2021/10/26 09:00:42;;;;;;;50.13;21.53;;;;;;;10.15;100.00;100802.88;7392148;19;20420;-45
2021/10/26 09:03:18;;;;;;;49.37;23.23;;;;;;;10.12;100.00;100808.78;7401981;19;20656;-46
2021/10/26 09:05:49;;;;;;;75.83;35.90;;;;;;;10.22;100.00;100812.66;7393041;19;20419;-49
2021/10/26 09:08:22;;;;;;;37.97;18.10;;;;;;;10.15;100.00;100821.78;7405478;19;20402;-49
2021/10/26 09:10:53;;;;;;;45.63;20.87;;;;;;;10.24;100.00;100823.91;7392014;19;20415;-47
2021/10/26 09:19:10;;;;;;;38.90;19.63;;;;;;;10.34;100.00;100836.41;7394539;19;20399;-49
2021/10/26 09:21:40;;;;;;;34.57;17.10;;;;;;;10.39;100.00;100836.59;7399198;19;20408;-48
2021/10/26 09:24:12;;;;;;;24.33;12.60;;;;;;;10.32;100.00;100856.09;7396803;19;20403;-48
2021/10/26 09:26:50;;;;;;;37.40;19.67;;;;;;;10.42;100.00;100869.38;7401033;19;20448;-45
2021/10/26 09:29:40;;;;;;;27.93;16.30;;;;;;;10.41;100.00;100883.97;7393166;19;20871;-48
2021/10/26 09:32:13;;;;;;;32.50;16.00;;;;;;;10.44;100.00;100885.81;7398533;19;20424;-45
2021/10/26 09:34:44;;;;;;;33.80;18.83;;;;;;;10.47;100.00;100896.31;7392955;19;20403;-49
2021/10/26 09:37:14;;;;;;;39.83;18.67;;;;;;;10.49;100.00;100904.97;7401048;19;20400;-49
2021/10/26 09:39:52;;;;;;;29.20;16.60;;;;;;;10.55;100.00;100906.97;7393110;19;20439;-52
2021/10/26 09:42:22;;;;;;;31.50;16.23;;;;;;;10.50;100.00;100919.63;7401403;19;20398;-53
2021/10/26 09:45:02;;;;;;;23.03;14.37;;;;;;;10.54;100.00;100926.72;7392531;19;20502;-49
2021/10/26 09:47:34;;;;;;;25.13;12.70;;;;;;;10.54;100.00;100934.44;7401991;19;20425;-47
2021/10/26 09:50:05;;;;;;;29.07;14.40;;;;;;;10.54;100.00;100937.03;7390764;19;20419;-48
2021/10/26 09:52:36;;;;;;;33.27;15.73;;;;;;;10.60;100.00;100938.97;7402611;19;20422;-47
2021/10/26 09:55:17;;;;;;;32.90;17.00;;;;;;;10.59;100.00;100943.28;7392481;19;20446;-46
2021/10/26 09:57:49;;;;;;;26.80;13.60;;;;;;;10.57;100.00;100952.66;7400257;19;20396;-50
2021/10/26 10:00:28;;;;;;;29.87;16.47;;;;;;;10.58;100.00;100954.41;7395077;19;20900;-47
2021/10/26 10:03:09;;;;;;;45.30;22.53;;;;;;;10.61;100.00;100949.38;7400077;19;20697;-50
2021/10/26 10:05:39;;;;;;;28.93;11.93;;;;;;;10.61;100.00;100959.72;7391285;19;20414;-49
2021/10/26 10:08:23;;;;;;;26.03;12.60;;;;;;;10.67;100.00;100962.56;7399727;19;20384;-52
2021/10/26 10:10:54;;;;;;;34.80;19.03;;;;;;;10.81;100.00;100962.28;7394080;19;20744;-54
2021/10/26 10:13:26;;;;;;;28.27;13.30;;;;;;;10.74;100.00;100960.25;7399677;19;20642;-52
2021/10/26 10:15:58;;;;;;;40.40;18.00;;;;;;;10.84;100.00;100964.13;7395563;19;20479;-51
2021/10/26 10:18:28;;;;;;;27.87;14.73;;;;;;;10.90;100.00;100965.28;7399699;19;20391;-49
2021/10/26 10:20:59;;;;;;;31.90;12.73;;;;;;;11.02;100.00;100961.47;7396266;19;20466;-46
2021/10/26 10:23:29;;;;;;;28.13;13.87;;;;;;;10.97;100.00;100961.25;7401388;19;20396;-47
2021/10/26 10:25:59;;;;;;;33.33;17.03;;;;;;;10.88;100.00;100973.78;7395917;19;20427;-44
2021/10/26 10:28:30;;;;;;;25.87;13.57;;;;;;;10.94;100.00;100974.03;7403895;19;20463;-45
2021/10/26 10:31:03;;;;;;;32.37;14.67;;;;;;;10.94;100.00;100980.06;7393802;19;20446;-47
2021/10/26 10:33:33;;;;;;;31.77;15.70;;;;;;;10.93;100.00;100980.91;7403444;19;20467;-45
2021/10/26 10:36:04;;;;;;;22.37;14.13;;;;;;;10.90;100.00;100975.63;7389574;19;20470;-47
2021/10/26 10:38:34;;;;;;;33.77;16.30;;;;;;;10.89;100.00;100989.34;7399022;19;21169;-48
2021/10/26 10:41:23;;;;;;;42.57;21.70;;;;;;;10.81;100.00;100990.69;7389507;19;20426;-46
2021/10/26 10:43:53;;;;;;;28.73;16.00;;;;;;;10.89;100.00;100991.91;7398875;19;20461;-48
2021/10/26 10:46:44;;;;;;;29.83;16.00;;;;;;;10.86;100.00;100988.31;7394329;19;20491;-45
2021/10/26 10:49:47;;;;;;;29.73;15.07;;;;;;;10.80;100.00;100982.06;7391479;19;20467;-46
2021/10/26 10:52:23;;;;;;;27.10;13.87;;;;;;;10.74;100.00;100986.06;7401526;19;20402;-45
2021/10/26 10:54:53;;;;;;;25.37;13.00;;;;;;;10.74;100.00;100978.31;7391926;19;20458;-47
2021/10/26 10:57:26;;;;;;;31.03;13.90;;;;;;;10.74;100.00;100975.75;7396155;19;20395;-46
2021/10/26 10:59:56;;;;;;;26.13;13.70;;;;;;;10.72;100.00;100979.97;7388360;19;20491;-46
2021/10/26 11:02:31;;;;;;;29.13;12.10;;;;;;;10.70;100.00;100984.16;7395541;19;20395;-46
2021/10/26 11:05:01;;;;;;;17.33;10.17;;;;;;;10.71;100.00;100981.63;7390456;19;20697;-47
2021/10/26 11:07:57;;;;;;;18.70;10.97;;;;;;;10.84;100.00;100987.34;7395559;19;20380;-46
2021/10/26 11:11:02;;;;;;;21.47;11.47;;;;;;;10.84;100.00;100989.94;7386855;19;20419;-46
2021/10/26 11:13:32;;;;;;;19.70;11.83;;;;;;;10.96;100.00;100997.34;7398138;19;20402;-47
2021/10/26 11:16:06;;;;;;;21.63;11.10;;;;;;;10.96;100.00;101005.09;7393718;19;20453;-49
2021/10/26 11:18:46;;;;;;;20.43;10.53;;;;;;;10.92;100.00;100999.78;7409400;19;20846;-46
2021/10/26 11:21:37;;;;;;;21.93;10.47;;;;;;;11.12;100.00;101016.97;7399309;19;20510;-45
2021/10/26 11:24:09;;;;;;;18.37;9.87;;;;;;;11.36;100.00;101004.22;7402233;19;20413;-47
2021/10/26 11:26:40;;;;;;;19.10;8.63;;;;;;;11.45;100.00;101024.41;7408631;19;20469;-45
2021/10/26 11:29:11;;;;;;;12.70;8.20;;;;;;;11.44;100.00;101033.84;7399436;19;20407;-45
2021/10/26 11:31:46;;;;;;;13.77;6.87;;;;;;;11.47;100.00;101039.16;7405569;19;20437;-46
2021/10/26 11:34:23;;;;;;;14.70;8.50;;;;;;;11.50;100.00;101047.84;7401290;19;20899;-45
2021/10/26 11:37:02;;;;;;;12.07;7.50;;;;;;;11.53;100.00;101061.78;7408849;19;20395;-49
2021/10/26 11:39:32;;;;;;;16.90;8.13;;;;;;;11.38;100.00;101059.41;7401520;19;20443;-48
2021/10/26 11:42:04;;;;;;;16.90;8.10;;;;;;;11.41;100.00;101058.66;7405313;19;20445;-47
2021/10/26 11:44:34;;;;;;;14.70;7.93;;;;;;;11.33;100.00;101055.75;7400967;19;20460;-45